createdAt,value
2022-08-27T00:02:39.593Z,20.30
2022-08-27T00:05:27.440Z,20.30
2022-08-27T00:08:15.383Z,20.30
2022-08-27T00:11:04.568Z,20.20
2022-08-27T00:13:52.534Z,20.20
2022-08-27T00:16:40.473Z,20.30
2022-08-27T00:19:28.295Z,20.20
2022-08-27T00:22:16.131Z,20.20
2022-08-27T00:25:04.048Z,20.20
2022-08-27T00:27:53.434Z,20.20
2022-08-27T00:30:41.301Z,20.20
2022-08-27T00:33:30.622Z,20.20
2022-08-27T00:36:18.521Z,20.20
2022-08-27T00:39:06.387Z,20.20
2022-08-27T00:41:54.349Z,20.20
2022-08-27T00:44:43.534Z,20.20
2022-08-27T00:47:33.306Z,20.20
2022-08-27T00:50:24.027Z,20.10
2022-08-27T00:53:13.347Z,20.10
2022-08-27T00:56:03.439Z,20.10
2022-08-27T00:58:52.808Z,20.10
2022-08-27T01:02:02.305Z,20.10
2022-08-27T01:04:52.243Z,20.00
2022-08-27T01:07:41.340Z,20.00
2022-08-27T01:10:29.747Z,19.90
2022-08-27T01:13:18.832Z,19.90
2022-08-27T01:16:07.976Z,19.90
2022-08-27T01:18:58.876Z,19.80
2022-08-27T01:21:50.823Z,19.80
2022-08-27T01:24:42.202Z,19.80
2022-08-27T01:27:32.827Z,19.80
2022-08-27T01:30:21.657Z,19.80
2022-08-27T01:33:10.608Z,19.80
2022-08-27T01:36:00.001Z,19.80
2022-08-27T01:38:48.000Z,19.80
2022-08-27T01:41:37.838Z,19.70
2022-08-27T01:44:26.011Z,19.70
2022-08-27T01:47:14.279Z,19.70
2022-08-27T01:50:02.237Z,19.60
2022-08-27T01:52:51.008Z,19.70
2022-08-27T01:55:39.735Z,19.70
2022-08-27T01:58:33.475Z,19.70
2022-08-27T02:01:21.446Z,19.70
2022-08-27T02:04:09.445Z,19.70
2022-08-27T02:06:57.683Z,19.70
2022-08-27T02:09:45.557Z,19.70
2022-08-27T02:12:33.661Z,19.70
2022-08-27T02:15:24.185Z,19.70
2022-08-27T02:18:13.392Z,19.70
2022-08-27T02:21:01.258Z,19.70
2022-08-27T02:23:49.153Z,19.60
2022-08-27T02:26:37.295Z,19.60
2022-08-27T02:29:25.495Z,19.60
2022-08-27T02:32:23.335Z,19.60
2022-08-27T02:35:20.870Z,19.60
2022-08-27T02:38:08.974Z,19.60
2022-08-27T02:40:56.876Z,19.70
2022-08-27T02:43:45.585Z,19.60
2022-08-27T02:46:34.035Z,19.60
2022-08-27T02:49:23.411Z,19.60
2022-08-27T02:52:11.257Z,19.60
2022-08-27T02:54:59.115Z,19.50
2022-08-27T02:57:48.450Z,19.50
2022-08-27T03:00:36.421Z,19.50
2022-08-27T03:03:24.308Z,19.50
2022-08-27T03:06:13.895Z,19.50
2022-08-27T03:09:01.750Z,19.40
2022-08-27T03:11:49.582Z,19.40
2022-08-27T03:14:37.418Z,19.40
2022-08-27T03:17:42.987Z,19.40
2022-08-27T03:20:30.873Z,19.40
2022-08-27T03:23:22.328Z,19.40
2022-08-27T03:26:11.632Z,19.30
2022-08-27T03:28:59.918Z,19.30
2022-08-27T03:31:47.928Z,19.30
2022-08-27T03:34:35.870Z,19.30
2022-08-27T03:37:23.723Z,19.30
2022-08-27T03:40:13.478Z,19.30
2022-08-27T03:43:02.627Z,19.30
2022-08-27T03:46:00.919Z,19.30
2022-08-27T03:48:50.156Z,19.20
2022-08-27T03:51:41.666Z,19.20
2022-08-27T03:54:31.191Z,19.20
2022-08-27T03:57:20.382Z,19.20
2022-08-27T04:00:10.418Z,19.20
2022-08-27T04:02:58.339Z,19.20
2022-08-27T04:05:46.239Z,19.10
2022-08-27T04:08:34.132Z,19.10
2022-08-27T04:11:22.646Z,19.10
2022-08-27T04:14:26.103Z,19.10
2022-08-27T04:17:16.219Z,19.20
2022-08-27T04:20:34.061Z,19.00
2022-08-27T04:23:14.361Z,19.00
2022-08-27T04:26:05.709Z,19.00
2022-08-27T04:28:53.926Z,19.00
2022-08-27T04:31:43.144Z,18.90
2022-08-27T04:34:31.210Z,18.90
2022-08-27T04:37:23.441Z,18.80
2022-08-27T04:40:11.708Z,18.80
2022-08-27T04:42:59.626Z,18.90
2022-08-27T04:45:48.358Z,18.80
2022-08-27T04:48:38.575Z,18.90
2022-08-27T04:51:26.507Z,18.90
2022-08-27T04:54:15.123Z,18.90
2022-08-27T04:57:05.649Z,18.90
2022-08-27T04:59:54.535Z,18.90
2022-08-27T05:02:42.357Z,18.90
2022-08-27T05:05:31.606Z,19.00
2022-08-27T05:08:19.597Z,19.00
2022-08-27T05:11:09.829Z,19.00
2022-08-27T05:13:57.672Z,19.00
2022-08-27T05:16:46.852Z,19.00
2022-08-27T05:19:34.706Z,19.00
2022-08-27T05:22:23.999Z,18.90
2022-08-27T05:25:12.272Z,19.00
2022-08-27T05:28:00.210Z,19.10
2022-08-27T05:30:52.429Z,19.00
2022-08-27T05:33:44.318Z,19.00
2022-08-27T05:36:33.743Z,19.00
2022-08-27T05:39:23.218Z,19.00
2022-08-27T05:42:12.741Z,19.00
2022-08-27T05:45:00.681Z,18.90
2022-08-27T05:47:48.854Z,18.90
2022-08-27T05:50:36.836Z,18.90
2022-08-27T05:53:25.029Z,18.90
2022-08-27T05:56:15.406Z,18.90
2022-08-27T05:59:21.029Z,18.80
2022-08-27T06:02:08.938Z,18.80
2022-08-27T06:04:57.165Z,18.80
2022-08-27T06:07:45.021Z,18.80
2022-08-27T06:10:32.884Z,18.80
2022-08-27T06:13:22.054Z,18.80
2022-08-27T06:16:14.050Z,18.80
2022-08-27T06:19:01.933Z,18.80
2022-08-27T06:22:00.280Z,18.80
2022-08-27T06:24:49.332Z,18.80
2022-08-27T06:27:37.136Z,18.80
2022-08-27T06:30:26.793Z,18.80
2022-08-27T06:33:16.086Z,18.80
2022-08-27T06:36:05.564Z,18.80
2022-08-27T06:38:54.277Z,18.80
2022-08-27T06:41:42.695Z,18.70
2022-08-27T06:44:31.202Z,18.80
2022-08-27T06:47:21.212Z,18.80
2022-08-27T06:50:09.658Z,18.80
2022-08-27T06:52:57.529Z,18.80
2022-08-27T06:55:46.541Z,18.80
2022-08-27T06:58:34.662Z,18.80
2022-08-27T07:01:23.495Z,18.80
2022-08-27T07:04:14.113Z,18.80
2022-08-27T07:07:03.146Z,18.80
2022-08-27T07:09:51.311Z,18.70
2022-08-27T07:12:40.422Z,18.80
2022-08-27T07:15:28.320Z,18.90
2022-08-27T07:18:19.701Z,18.90
2022-08-27T07:21:20.063Z,18.90
2022-08-27T07:24:09.180Z,18.90
2022-08-27T07:26:57.252Z,18.90
2022-08-27T07:29:45.132Z,18.90
2022-08-27T07:32:32.977Z,18.90
2022-08-27T07:35:20.854Z,19.00
2022-08-27T07:38:12.300Z,19.00
2022-08-27T07:41:00.370Z,19.00
2022-08-27T07:44:05.847Z,19.00
2022-08-27T07:46:54.557Z,19.00
2022-08-27T07:49:42.464Z,19.00
2022-08-27T07:52:30.316Z,19.10
2022-08-27T07:55:19.706Z,19.20
2022-08-27T07:58:12.015Z,19.10
2022-08-27T08:01:01.202Z,19.10
2022-08-27T08:03:49.131Z,19.10
2022-08-27T08:06:38.098Z,19.10
2022-08-27T08:09:26.213Z,19.20
2022-08-27T08:12:15.496Z,19.10
2022-08-27T08:15:03.466Z,19.10
2022-08-27T08:17:51.279Z,19.10
2022-08-27T08:20:57.198Z,19.10
2022-08-27T08:23:47.197Z,19.20
2022-08-27T08:26:35.972Z,19.20
2022-08-27T08:29:25.158Z,19.20
2022-08-27T08:32:13.009Z,19.10
2022-08-27T08:35:01.003Z,19.20
2022-08-27T08:37:49.127Z,19.20
2022-08-27T08:40:37.834Z,19.10
2022-08-27T08:43:30.114Z,19.00
2022-08-27T08:46:23.066Z,19.10
2022-08-27T08:49:16.442Z,19.10
2022-08-27T08:52:12.234Z,19.10
2022-08-27T08:55:24.890Z,19.10
2022-08-27T08:58:15.314Z,19.10
2022-08-27T09:01:05.014Z,19.10
2022-08-27T09:03:55.719Z,19.20
2022-08-27T09:06:46.672Z,19.20
2022-08-27T09:09:38.277Z,19.30
2022-08-27T09:12:29.724Z,19.30
2022-08-27T09:15:19.737Z,19.30
2022-08-27T09:18:08.690Z,19.30
2022-08-27T09:21:08.887Z,19.30
2022-08-27T09:24:03.877Z,19.20
2022-08-27T09:26:52.243Z,19.20
2022-08-27T09:29:47.369Z,19.30
2022-08-27T09:32:35.604Z,19.30
2022-08-27T09:35:23.514Z,19.40
2022-08-27T09:38:14.039Z,19.40
2022-08-27T09:41:03.562Z,19.40
2022-08-27T09:43:57.765Z,19.50
2022-08-27T09:46:52.597Z,19.60
2022-08-27T09:49:41.401Z,19.60
2022-08-27T09:52:31.557Z,19.60
2022-08-27T09:55:32.158Z,19.70
2022-08-27T09:58:22.090Z,19.80
2022-08-27T10:01:17.991Z,19.80
2022-08-27T10:04:07.608Z,19.90
2022-08-27T10:06:56.032Z,19.90
2022-08-27T10:09:47.139Z,20.00
2022-08-27T10:12:42.863Z,20.00
2022-08-27T10:15:36.333Z,20.10
2022-08-27T10:18:38.582Z,20.00
2022-08-27T10:21:30.805Z,20.10
2022-08-27T10:24:23.497Z,20.00
2022-08-27T10:27:18.935Z,20.00
2022-08-27T10:30:10.383Z,19.90
2022-08-27T10:33:03.581Z,20.00
2022-08-27T10:35:58.078Z,19.90
2022-08-27T10:38:48.478Z,19.90
2022-08-27T10:41:38.987Z,19.90
2022-08-27T10:44:36.266Z,19.90
2022-08-27T10:47:30.239Z,19.80
2022-08-27T10:50:22.559Z,19.70
2022-08-27T10:53:13.353Z,19.70
2022-08-27T10:56:08.919Z,19.60
2022-08-27T10:59:03.595Z,19.70
2022-08-27T11:01:56.184Z,19.80
2022-08-27T11:04:50.280Z,19.80
2022-08-27T11:07:40.005Z,19.90
2022-08-27T11:10:29.867Z,19.90
2022-08-27T11:13:19.805Z,20.00
2022-08-27T11:16:10.338Z,20.10
2022-08-27T11:19:00.557Z,20.10
2022-08-27T11:21:55.146Z,20.20
2022-08-27T11:24:47.717Z,20.20
2022-08-27T11:27:36.379Z,20.30
2022-08-27T11:30:30.077Z,20.40
2022-08-27T11:33:19.878Z,20.50
2022-08-27T11:36:17.908Z,20.40
2022-08-27T11:39:15.153Z,20.50
2022-08-27T11:42:07.151Z,20.50
2022-08-27T11:44:58.875Z,20.50
2022-08-27T11:47:53.385Z,20.50
2022-08-27T11:50:41.616Z,20.50
2022-08-27T11:53:31.143Z,20.40
2022-08-27T11:56:22.225Z,20.30
2022-08-27T11:59:11.325Z,20.30
2022-08-27T12:02:00.536Z,20.30
2022-08-27T12:04:48.668Z,20.30
2022-08-27T12:07:39.780Z,20.30
2022-08-27T12:10:31.077Z,20.20
2022-08-27T12:13:23.725Z,20.20
2022-08-27T12:16:17.042Z,20.20
2022-08-27T12:19:10.106Z,20.20
2022-08-27T12:22:05.406Z,20.20
2022-08-27T12:24:55.734Z,20.20
2022-08-27T12:27:43.875Z,20.20
2022-08-27T12:30:34.911Z,20.20
2022-08-27T12:33:27.458Z,20.30
2022-08-27T12:36:18.621Z,20.30
2022-08-27T12:39:17.889Z,20.30
2022-08-27T12:42:13.571Z,20.30
2022-08-27T12:45:01.648Z,20.30
2022-08-27T12:47:51.353Z,20.30
2022-08-27T12:50:39.400Z,20.20
2022-08-27T12:53:35.750Z,20.30
2022-08-27T12:56:35.657Z,20.40
2022-08-27T12:59:36.039Z,20.40
2022-08-27T13:02:37.205Z,20.50
2022-08-27T13:05:26.459Z,20.50
2022-08-27T13:08:21.944Z,20.50
2022-08-27T13:11:12.723Z,20.50
2022-08-27T13:14:06.802Z,20.40
2022-08-27T13:16:55.883Z,20.40
2022-08-27T13:19:45.751Z,20.30
2022-08-27T13:22:38.636Z,20.30
2022-08-27T13:25:29.637Z,20.20
2022-08-27T13:28:20.914Z,20.00
2022-08-27T13:31:10.220Z,20.00
2022-08-27T13:33:58.793Z,20.00
2022-08-27T13:36:55.581Z,20.00
2022-08-27T13:39:44.775Z,20.00
2022-08-27T13:42:33.501Z,20.00
2022-08-27T13:45:21.563Z,20.00
2022-08-27T13:48:11.568Z,19.90
2022-08-27T13:51:01.902Z,19.90
2022-08-27T13:54:07.318Z,19.80
2022-08-27T13:57:08.358Z,19.90
2022-08-27T13:59:58.624Z,19.90
2022-08-27T14:02:56.267Z,19.90
2022-08-27T14:05:48.790Z,19.80
2022-08-27T14:08:36.906Z,19.80
2022-08-27T14:11:27.260Z,19.80
2022-08-27T14:14:18.583Z,19.70
2022-08-27T14:17:08.784Z,19.60
2022-08-27T14:20:00.883Z,19.60
2022-08-27T14:22:48.906Z,19.60
2022-08-27T14:25:36.816Z,19.60
2022-08-27T14:28:24.793Z,19.70
2022-08-27T14:31:14.204Z,19.70
2022-08-27T14:34:02.413Z,19.70
2022-08-27T14:36:54.633Z,19.70
2022-08-27T14:39:43.331Z,19.60
2022-08-27T14:42:32.894Z,19.60
2022-08-27T14:45:20.850Z,19.60
2022-08-27T14:48:18.203Z,19.60
2022-08-27T14:51:10.646Z,19.60
2022-08-27T14:53:58.938Z,19.50
2022-08-27T14:56:46.816Z,19.50
2022-08-27T14:59:34.993Z,19.50
2022-08-27T15:02:23.297Z,19.60
2022-08-27T15:05:12.870Z,19.60
2022-08-27T15:08:01.087Z,19.60
2022-08-27T15:10:49.990Z,19.70
2022-08-27T15:13:38.400Z,19.70
2022-08-27T15:16:31.189Z,19.80
2022-08-27T15:19:19.194Z,19.80
2022-08-27T15:22:16.662Z,19.90
2022-08-27T15:25:05.783Z,19.90
2022-08-27T15:27:54.169Z,19.90
2022-08-27T15:30:42.218Z,19.90
2022-08-27T15:33:30.204Z,19.90
2022-08-27T15:36:18.099Z,19.80
2022-08-27T15:39:07.327Z,19.80
2022-08-27T15:42:10.384Z,19.80
2022-08-27T15:44:58.288Z,19.80
2022-08-27T15:47:46.099Z,19.80
2022-08-27T15:50:34.364Z,19.70
2022-08-27T15:53:23.811Z,19.80
2022-08-27T15:56:12.989Z,19.80
2022-08-27T15:59:01.656Z,19.80
2022-08-27T16:01:49.774Z,19.80
2022-08-27T16:04:40.033Z,19.80
2022-08-27T16:07:28.462Z,19.70
2022-08-27T16:10:16.533Z,19.60
2022-08-27T16:13:05.772Z,19.60
2022-08-27T16:15:54.044Z,19.50
2022-08-27T16:18:43.079Z,19.60
2022-08-27T16:21:31.633Z,19.60
2022-08-27T16:24:20.384Z,19.50
2022-08-27T16:27:08.317Z,19.50
2022-08-27T16:29:57.578Z,19.50
2022-08-27T16:32:47.073Z,19.50
2022-08-27T16:35:34.909Z,19.50
2022-08-27T16:38:23.215Z,19.50
2022-08-27T16:41:11.411Z,19.40
2022-08-27T16:44:00.094Z,19.30
2022-08-27T16:46:49.249Z,19.30
2022-08-27T16:49:54.948Z,19.20
2022-08-27T16:52:42.929Z,19.10
2022-08-27T16:55:34.360Z,19.10
2022-08-27T16:58:23.786Z,19.10
2022-08-27T17:01:13.066Z,19.00
2022-08-27T17:04:10.114Z,19.10
2022-08-27T17:06:59.084Z,19.10
2022-08-27T17:09:47.006Z,19.10
2022-08-27T17:12:34.941Z,19.10
2022-08-27T17:15:23.188Z,19.10
2022-08-27T17:18:11.445Z,19.10
2022-08-27T17:21:01.084Z,19.20
2022-08-27T17:23:50.285Z,19.20
2022-08-27T17:26:38.333Z,19.20
2022-08-27T17:29:26.192Z,19.20
2022-08-27T17:32:14.219Z,19.20
2022-08-27T17:35:05.911Z,19.20
2022-08-27T17:37:55.727Z,19.20
2022-08-27T17:40:43.892Z,19.20
2022-08-27T17:43:32.009Z,19.30
2022-08-27T17:46:20.100Z,19.30
2022-08-27T17:49:07.941Z,19.40
2022-08-27T17:51:57.765Z,19.30
2022-08-27T17:54:48.227Z,19.30
2022-08-27T17:57:40.817Z,19.20
2022-08-27T18:00:29.298Z,19.20
2022-08-27T18:03:18.251Z,19.20
2022-08-27T18:06:06.188Z,19.20
2022-08-27T18:08:54.181Z,19.10
2022-08-27T18:11:44.485Z,19.10
2022-08-27T18:14:32.312Z,19.10
2022-08-27T18:17:20.194Z,19.10
2022-08-27T18:20:09.412Z,19.10
2022-08-27T18:22:57.696Z,19.10
2022-08-27T18:25:45.829Z,19.00
2022-08-27T18:28:35.185Z,19.00
2022-08-27T18:31:27.387Z,19.00
2022-08-27T18:34:20.088Z,19.00
2022-08-27T18:37:08.740Z,19.00
2022-08-27T18:39:56.685Z,19.00
2022-08-27T18:42:45.121Z,19.00
2022-08-27T18:45:37.078Z,18.90
2022-08-27T18:48:25.001Z,19.00
2022-08-27T18:51:14.102Z,19.00
2022-08-27T18:54:01.947Z,18.90
2022-08-27T18:56:50.860Z,18.90
2022-08-27T18:59:38.783Z,18.90
2022-08-27T19:02:28.376Z,18.90
2022-08-27T19:05:16.927Z,18.90
2022-08-27T19:08:04.908Z,18.90
2022-08-27T19:10:52.862Z,18.90
2022-08-27T19:13:40.790Z,18.90
2022-08-27T19:16:35.179Z,18.90
2022-08-27T19:19:25.677Z,18.80
2022-08-27T19:22:13.510Z,18.80
2022-08-27T19:25:01.480Z,18.80
2022-08-27T19:27:49.471Z,18.80
2022-08-27T19:30:37.389Z,18.80
2022-08-27T19:33:25.296Z,18.80
2022-08-27T19:36:16.170Z,18.80
2022-08-27T19:39:04.374Z,18.80
2022-08-27T19:41:52.736Z,18.80
2022-08-27T19:44:40.661Z,18.70
2022-08-27T19:47:28.731Z,18.70
2022-08-27T19:50:17.339Z,18.60
2022-08-27T19:53:06.685Z,18.70
2022-08-27T19:55:54.689Z,18.70
2022-08-27T19:58:43.122Z,18.60
2022-08-27T20:01:31.456Z,18.70
2022-08-27T20:04:19.669Z,18.80
2022-08-27T20:07:07.937Z,18.70
2022-08-27T20:09:57.430Z,18.70
2022-08-27T20:12:50.046Z,18.70
2022-08-27T20:15:38.738Z,18.70
2022-08-27T20:18:28.657Z,18.70
2022-08-27T20:21:16.797Z,18.70
2022-08-27T20:24:04.990Z,18.70
2022-08-27T20:26:56.339Z,18.70
2022-08-27T20:29:44.613Z,18.60
2022-08-27T20:32:34.319Z,18.60
2022-08-27T20:35:22.543Z,18.60
2022-08-27T20:38:10.501Z,18.60
2022-08-27T20:40:58.526Z,18.60
2022-08-27T20:43:47.718Z,18.60
2022-08-27T20:46:35.645Z,18.60
2022-08-27T20:49:23.459Z,18.60
2022-08-27T20:52:11.727Z,18.50
2022-08-27T20:54:59.735Z,18.50
2022-08-27T20:58:06.324Z,18.50
2022-08-27T21:00:56.522Z,18.50
2022-08-27T21:03:44.634Z,18.40
2022-08-27T21:06:35.619Z,18.40
2022-08-27T21:09:23.417Z,18.40
2022-08-27T21:12:11.307Z,18.40
2022-08-27T21:15:00.056Z,18.40
2022-08-27T21:17:49.354Z,18.40
2022-08-27T21:20:37.613Z,18.40
2022-08-27T21:23:27.659Z,18.40
2022-08-27T21:26:15.515Z,18.40
2022-08-27T21:29:03.346Z,18.40
2022-08-27T21:31:51.700Z,18.40
2022-08-27T21:34:41.722Z,18.40
2022-08-27T21:37:29.642Z,18.40
2022-08-27T21:40:19.045Z,18.40
2022-08-27T21:43:07.159Z,18.40
2022-08-27T21:45:55.804Z,18.30
2022-08-27T21:48:43.735Z,18.40
2022-08-27T21:51:33.184Z,18.40
2022-08-27T21:54:21.161Z,18.40
2022-08-27T21:57:14.365Z,18.40
2022-08-27T22:00:09.117Z,18.30
2022-08-27T22:02:57.429Z,18.30
2022-08-27T22:05:45.613Z,18.50
2022-08-27T22:08:34.797Z,18.30
2022-08-27T22:11:24.489Z,18.30
2022-08-27T22:14:12.570Z,18.30
2022-08-27T22:17:00.466Z,18.30
2022-08-27T22:19:48.344Z,18.30
2022-08-27T22:22:36.265Z,18.30
2022-08-27T22:25:25.781Z,18.30
2022-08-27T22:28:14.114Z,18.30
2022-08-27T22:31:02.037Z,18.30
2022-08-27T22:33:49.994Z,18.30
2022-08-27T22:36:39.175Z,18.30
2022-08-27T22:39:27.122Z,18.30
2022-08-27T22:42:18.197Z,18.20
2022-08-27T22:45:06.736Z,18.20
2022-08-27T22:47:57.429Z,18.20
2022-08-27T22:50:45.329Z,18.20
2022-08-27T22:53:33.301Z,18.20
2022-08-27T22:56:21.994Z,18.20
2022-08-27T22:59:11.190Z,18.20
2022-08-27T23:01:59.553Z,18.10
2022-08-27T23:04:55.770Z,18.10
2022-08-27T23:07:44.839Z,18.10
2022-08-27T23:10:32.741Z,18.00
2022-08-27T23:13:21.711Z,18.00
2022-08-27T23:16:11.503Z,17.90
2022-08-27T23:18:59.427Z,17.90
2022-08-27T23:21:48.127Z,17.90
2022-08-27T23:24:56.209Z,17.80
2022-08-27T23:27:43.099Z,17.80
2022-08-27T23:30:31.089Z,17.90
2022-08-27T23:33:20.301Z,17.80
2022-08-27T23:36:08.217Z,17.80
2022-08-27T23:38:58.214Z,17.70
2022-08-27T23:41:46.089Z,17.70
2022-08-27T23:44:34.239Z,17.70
2022-08-27T23:47:22.194Z,17.60
2022-08-27T23:50:11.998Z,17.70
2022-08-27T23:53:00.376Z,17.60
2022-08-27T23:55:48.246Z,17.60
2022-08-27T23:58:36.081Z,17.60
